createdAt,value
2023-05-13T00:01:25.417Z,102270.59
2023-05-13T00:03:52.011Z,102270.50
2023-05-13T00:06:20.380Z,102272.41
2023-05-13T00:08:47.081Z,102272.38
2023-05-13T00:11:13.633Z,102269.66
2023-05-13T00:13:40.185Z,102261.63
2023-05-13T00:16:06.937Z,102270.59
2023-05-13T00:18:33.564Z,102261.63
2023-05-13T00:21:01.031Z,102270.59
2023-05-13T00:23:28.414Z,102260.78
2023-05-13T00:25:54.965Z,102263.41
2023-05-13T00:28:21.516Z,102267.88
2023-05-13T00:30:49.247Z,102257.13
2023-05-13T00:33:15.994Z,102261.63
2023-05-13T00:35:42.663Z,102258.03
2023-05-13T00:38:09.285Z,102250.84
2023-05-13T00:40:42.351Z,102259.81
2023-05-13T00:43:09.001Z,102253.56
2023-05-13T00:45:39.989Z,102249.97
2023-05-13T00:48:09.274Z,102258.03
2023-05-13T00:50:36.024Z,102254.44
2023-05-13T00:53:03.809Z,102256.34
2023-05-13T00:55:31.831Z,102254.50
2023-05-13T00:58:05.695Z,102254.44
2023-05-13T01:00:34.080Z,102257.13
2023-05-13T01:03:06.921Z,102264.34
2023-05-13T01:06:14.986Z,102250.84
2023-05-13T01:08:48.303Z,102254.50
2023-05-13T01:11:16.703Z,102250.00
2023-05-13T01:13:45.919Z,102250.84
2023-05-13T01:16:21.237Z,102251.81
2023-05-13T01:18:57.510Z,102256.34
2023-05-13T01:21:27.538Z,102250.91
2023-05-13T01:23:58.084Z,102253.63
2023-05-13T01:26:29.575Z,102249.97
2023-05-13T01:28:56.156Z,102247.41
2023-05-13T01:31:27.426Z,102256.34
2023-05-13T01:33:56.780Z,102254.50
2023-05-13T01:36:23.486Z,102257.22
2023-05-13T01:38:54.157Z,102263.53
2023-05-13T01:41:20.855Z,102263.47
2023-05-13T01:43:49.468Z,102261.78
2023-05-13T01:46:18.713Z,102260.00
2023-05-13T01:48:45.334Z,102267.09
2023-05-13T01:51:13.197Z,102264.38
2023-05-13T01:53:39.803Z,102269.84
2023-05-13T01:56:12.410Z,102276.03
2023-05-13T01:58:40.440Z,102271.63
2023-05-13T02:01:07.198Z,102268.94
2023-05-13T02:03:33.817Z,102267.16
2023-05-13T02:06:00.424Z,102268.94
2023-05-13T02:08:27.773Z,102270.69
2023-05-13T02:10:58.256Z,102271.69
2023-05-13T02:13:27.655Z,102276.13
2023-05-13T02:15:54.582Z,102263.56
2023-05-13T02:18:21.208Z,102270.78
2023-05-13T02:20:47.829Z,102266.34
2023-05-13T02:23:22.389Z,102266.31
2023-05-13T02:25:48.925Z,102269.84
2023-05-13T02:28:15.521Z,102269.00
2023-05-13T02:30:42.152Z,102274.34
2023-05-13T02:33:08.817Z,102270.78
2023-05-13T02:35:35.660Z,102268.16
2023-05-13T02:38:06.947Z,102265.41
2023-05-13T02:40:33.514Z,102268.06
2023-05-13T02:43:00.838Z,102260.97
2023-05-13T02:45:27.410Z,102263.66
2023-05-13T02:47:57.509Z,102269.88
2023-05-13T02:50:24.360Z,102261.81
2023-05-13T02:52:54.067Z,102261.91
2023-05-13T02:55:20.764Z,102261.78
2023-05-13T02:57:49.861Z,102260.06
2023-05-13T03:00:16.706Z,102259.19
2023-05-13T03:02:43.354Z,102260.09
2023-05-13T03:05:13.541Z,102260.06
2023-05-13T03:07:40.127Z,102249.31
2023-05-13T03:10:08.401Z,102251.97
2023-05-13T03:12:35.102Z,102251.03
2023-05-13T03:15:01.646Z,102249.34
2023-05-13T03:17:30.958Z,102252.88
2023-05-13T03:19:57.714Z,102254.63
2023-05-13T03:22:26.838Z,102249.34
2023-05-13T03:24:54.242Z,102256.50
2023-05-13T03:27:23.264Z,102264.56
2023-05-13T03:29:51.194Z,102256.50
2023-05-13T03:32:17.829Z,102262.75
2023-05-13T03:34:44.374Z,102253.81
2023-05-13T03:37:11.149Z,102262.78
2023-05-13T03:39:37.774Z,102263.69
2023-05-13T03:42:04.565Z,102267.28
2023-05-13T03:44:31.169Z,102263.69
2023-05-13T03:46:57.745Z,102261.94
2023-05-13T03:49:24.344Z,102259.25
2023-05-13T03:51:51.016Z,102257.44
2023-05-13T03:54:17.602Z,102263.69
2023-05-13T03:56:44.136Z,102267.31
2023-05-13T03:59:10.734Z,102259.25
2023-05-13T04:01:37.407Z,102262.84
2023-05-13T04:04:04.065Z,102258.31
2023-05-13T04:06:39.008Z,102256.56
2023-05-13T04:09:05.765Z,102258.31
2023-05-13T04:11:32.519Z,102272.69
2023-05-13T04:13:59.079Z,102265.56
2023-05-13T04:16:25.945Z,102261.09
2023-05-13T04:18:52.536Z,102266.44
2023-05-13T04:21:19.196Z,102269.13
2023-05-13T04:23:45.940Z,102267.34
2023-05-13T04:26:14.912Z,102271.84
2023-05-13T04:28:45.738Z,102271.81
2023-05-13T04:31:12.302Z,102272.72
2023-05-13T04:33:39.009Z,102277.28
2023-05-13T04:36:14.994Z,102280.84
2023-05-13T04:38:47.711Z,102272.72
2023-05-13T04:41:16.657Z,102270.03
2023-05-13T04:43:43.275Z,102275.50
2023-05-13T04:46:09.915Z,102280.88
2023-05-13T04:48:36.589Z,102289.00
2023-05-13T04:51:03.740Z,102284.47
2023-05-13T04:53:30.697Z,102282.63
2023-05-13T04:56:01.879Z,102277.28
2023-05-13T04:58:33.884Z,102285.31
2023-05-13T05:01:00.817Z,102289.00
2023-05-13T05:03:27.410Z,102290.78
2023-05-13T05:05:54.013Z,102279.09
2023-05-13T05:08:20.568Z,102297.97
2023-05-13T05:10:47.139Z,102288.09
2023-05-13T05:13:13.703Z,102295.28
2023-05-13T05:15:40.318Z,102292.59
2023-05-13T05:18:07.064Z,102305.13
2023-05-13T05:20:33.719Z,102306.03
2023-05-13T05:23:00.347Z,102296.19
2023-05-13T05:25:28.464Z,102292.59
2023-05-13T05:27:55.262Z,102301.53
2023-05-13T05:30:22.002Z,102303.34
2023-05-13T05:32:48.802Z,102299.75
2023-05-13T05:35:16.940Z,102302.47
2023-05-13T05:37:43.567Z,102303.38
2023-05-13T05:40:10.551Z,102306.91
2023-05-13T05:42:38.018Z,102303.34
2023-05-13T05:45:04.839Z,102311.38
2023-05-13T05:47:31.418Z,102309.66
2023-05-13T05:49:58.046Z,102304.25
2023-05-13T05:52:24.609Z,102299.78
2023-05-13T05:54:51.213Z,102306.03
2023-05-13T05:57:17.757Z,102304.25
2023-05-13T05:59:44.317Z,102307.81
2023-05-13T06:02:10.973Z,102308.75
2023-05-13T06:04:37.745Z,102313.22
2023-05-13T06:07:07.481Z,102313.22
2023-05-13T06:09:34.071Z,102313.22
2023-05-13T06:12:00.873Z,102309.63
2023-05-13T06:14:27.407Z,102317.69
2023-05-13T06:16:55.690Z,102320.38
2023-05-13T06:19:23.287Z,102318.63
2023-05-13T06:21:50.004Z,102308.75
2023-05-13T06:24:18.152Z,102313.22
2023-05-13T06:26:45.655Z,102311.47
2023-05-13T06:29:12.216Z,102314.16
2023-05-13T06:31:44.953Z,102314.16
2023-05-13T06:34:16.463Z,102311.44
2023-05-13T06:36:44.162Z,102319.50
2023-05-13T06:39:11.944Z,102310.53
2023-05-13T06:41:41.450Z,102324.88
2023-05-13T06:44:08.046Z,102319.50
2023-05-13T06:46:34.637Z,102321.31
2023-05-13T06:49:01.239Z,102324.91
2023-05-13T06:51:28.595Z,102327.59
2023-05-13T06:53:55.674Z,102316.84
2023-05-13T06:56:25.870Z,102324.00
2023-05-13T06:58:53.046Z,102319.53
2023-05-13T07:01:19.967Z,102323.97
2023-05-13T07:03:46.574Z,102327.53
2023-05-13T07:06:13.207Z,102332.03
2023-05-13T07:08:40.820Z,102323.97
2023-05-13T07:11:07.460Z,102324.88
2023-05-13T07:13:34.982Z,102323.06
2023-05-13T07:16:02.348Z,102319.47
2023-05-13T07:18:29.645Z,102332.03
2023-05-13T07:20:56.682Z,102328.41
2023-05-13T07:23:29.375Z,102326.63
2023-05-13T07:25:56.450Z,102323.03
2023-05-13T07:28:23.028Z,102330.19
2023-05-13T07:30:50.537Z,102330.19
2023-05-13T07:33:17.089Z,102326.63
2023-05-13T07:35:43.679Z,102330.19
2023-05-13T07:38:11.199Z,102323.00
2023-05-13T07:40:38.249Z,102329.28
2023-05-13T07:43:06.018Z,102325.72
2023-05-13T07:45:32.600Z,102334.63
2023-05-13T07:47:59.250Z,102335.53
2023-05-13T07:50:26.011Z,102329.25
2023-05-13T07:52:52.567Z,102322.97
2023-05-13T07:55:19.519Z,102336.44
2023-05-13T07:57:46.189Z,102332.81
2023-05-13T08:00:13.297Z,102334.63
2023-05-13T08:02:39.983Z,102344.50
2023-05-13T08:05:07.040Z,102338.25
2023-05-13T08:07:33.680Z,102346.31
2023-05-13T08:10:00.305Z,102336.47
2023-05-13T08:12:26.912Z,102332.84
2023-05-13T08:14:53.577Z,102333.72
2023-05-13T08:17:20.212Z,102337.34
2023-05-13T08:19:46.809Z,102327.44
2023-05-13T08:22:13.408Z,102337.28
2023-05-13T08:24:43.310Z,102339.06
2023-05-13T08:27:09.963Z,102340.84
2023-05-13T08:29:36.494Z,102345.34
2023-05-13T08:32:03.145Z,102337.25
2023-05-13T08:34:29.774Z,102336.38
2023-05-13T08:36:56.354Z,102343.53
2023-05-13T08:39:23.144Z,102339.88
2023-05-13T08:41:52.109Z,102345.25
2023-05-13T08:44:20.022Z,102347.00
2023-05-13T08:46:52.996Z,102349.69
2023-05-13T08:49:20.025Z,102354.25
2023-05-13T08:51:46.732Z,102352.41
2023-05-13T08:54:13.844Z,102355.06
2023-05-13T08:56:40.394Z,102355.06
2023-05-13T08:59:07.315Z,102354.16
2023-05-13T09:01:37.216Z,102347.78
2023-05-13T09:04:06.856Z,102345.16
2023-05-13T09:06:33.860Z,102352.28
2023-05-13T09:09:00.841Z,102349.56
2023-05-13T09:11:28.823Z,102354.09
2023-05-13T09:13:59.510Z,102351.38
2023-05-13T09:16:27.944Z,102354.91
2023-05-13T09:19:02.890Z,102354.00
2023-05-13T09:21:32.439Z,102351.31
2023-05-13T09:24:13.777Z,102348.56
2023-05-13T09:26:42.203Z,102354.84
2023-05-13T09:29:25.682Z,102350.31
2023-05-13T09:31:53.427Z,102351.22
2023-05-13T09:34:30.155Z,102355.69
2023-05-13T09:37:01.520Z,102359.22
2023-05-13T09:39:28.612Z,102359.19
2023-05-13T09:41:55.200Z,102351.13
2023-05-13T09:44:22.042Z,102359.22
2023-05-13T09:46:48.794Z,102356.44
2023-05-13T09:49:15.680Z,102355.53
2023-05-13T09:51:44.128Z,102357.28
2023-05-13T09:54:11.392Z,102359.06
2023-05-13T09:56:39.221Z,102353.66
2023-05-13T09:59:05.840Z,102359.91
2023-05-13T10:01:33.761Z,102346.31
2023-05-13T10:04:00.470Z,102352.66
2023-05-13T10:06:28.276Z,102350.78
2023-05-13T10:08:58.368Z,102353.47
2023-05-13T10:11:25.310Z,102349.81
2023-05-13T10:14:03.233Z,102350.72
2023-05-13T10:16:30.399Z,102345.31
2023-05-13T10:18:58.778Z,102341.75
2023-05-13T10:21:26.538Z,102331.81
2023-05-13T10:23:54.055Z,102339.88
2023-05-13T10:26:24.170Z,102339.84
2023-05-13T10:28:51.072Z,102347.88
2023-05-13T10:31:17.923Z,102339.78
2023-05-13T10:33:45.307Z,102334.31
2023-05-13T10:36:25.983Z,102332.50
2023-05-13T10:39:17.930Z,102345.09
2023-05-13T10:42:20.094Z,102332.47
2023-05-13T10:44:47.102Z,102335.22
2023-05-13T10:47:13.874Z,102330.69
2023-05-13T10:49:40.583Z,102335.22
2023-05-13T10:52:09.579Z,102328.03
2023-05-13T10:54:38.799Z,102333.44
2023-05-13T10:57:05.443Z,102328.91
2023-05-13T10:59:33.972Z,102323.50
2023-05-13T11:02:23.004Z,102321.66
2023-05-13T11:05:00.446Z,102326.97
2023-05-13T11:07:30.231Z,102324.31
2023-05-13T11:09:56.886Z,102316.13
2023-05-13T11:12:26.500Z,102321.59
2023-05-13T11:14:56.114Z,102312.53
2023-05-13T11:17:22.903Z,102317.91
2023-05-13T11:19:51.016Z,102316.13
2023-05-13T11:22:26.978Z,102313.34
2023-05-13T11:25:13.355Z,102307.09
2023-05-13T11:27:41.576Z,102307.97
2023-05-13T11:30:21.574Z,102301.63
2023-05-13T11:32:51.548Z,102300.63
2023-05-13T11:35:22.906Z,102298.69
2023-05-13T11:37:49.538Z,102302.34
2023-05-13T11:40:27.421Z,102297.78
2023-05-13T11:42:54.253Z,102302.25
2023-05-13T11:45:25.053Z,102303.09
2023-05-13T11:47:53.324Z,102303.06
2023-05-13T11:50:27.405Z,102307.63
2023-05-13T11:52:55.850Z,102305.75
2023-05-13T11:55:29.529Z,102307.50
2023-05-13T11:57:56.745Z,102302.88
2023-05-13T12:00:27.603Z,102306.56
2023-05-13T12:02:54.733Z,102310.19
2023-05-13T12:05:22.057Z,102306.59
2023-05-13T12:07:48.929Z,102311.88
2023-05-13T12:10:15.743Z,102308.28
2023-05-13T12:12:45.841Z,102305.56
2023-05-13T12:15:18.657Z,102306.41
2023-05-13T12:17:45.575Z,102302.81
2023-05-13T12:20:14.833Z,102295.63
2023-05-13T12:22:49.598Z,102306.41
2023-05-13T12:25:47.839Z,102306.34
2023-05-13T12:28:19.467Z,102298.34
2023-05-13T12:30:57.846Z,102300.91
2023-05-13T12:33:29.021Z,102299.03
2023-05-13T12:36:15.781Z,102305.25
2023-05-13T12:39:02.277Z,102315.09
2023-05-13T12:41:30.699Z,102306.22
2023-05-13T12:43:59.167Z,102307.91
2023-05-13T12:46:26.101Z,102302.50
2023-05-13T12:49:00.189Z,102298.88
2023-05-13T12:51:27.323Z,102293.44
2023-05-13T12:53:54.537Z,102295.06
2023-05-13T12:56:23.179Z,102300.72
2023-05-13T12:58:50.889Z,102290.69
2023-05-13T13:01:17.877Z,102290.63
2023-05-13T13:03:45.073Z,102286.19
2023-05-13T13:06:12.671Z,102283.47
2023-05-13T13:08:39.543Z,102287.78
2023-05-13T13:11:06.636Z,102291.38
2023-05-13T13:13:33.578Z,102287.84
2023-05-13T13:16:00.735Z,102288.75
2023-05-13T13:18:27.422Z,102283.38
2023-05-13T13:20:54.767Z,102293.25
2023-05-13T13:23:21.529Z,102282.44
2023-05-13T13:25:55.045Z,102289.53
2023-05-13T13:28:21.660Z,102288.59
2023-05-13T13:30:48.286Z,102288.59
2023-05-13T13:33:15.802Z,102288.63
2023-05-13T13:35:47.254Z,102288.50
2023-05-13T13:38:14.311Z,102292.13
2023-05-13T13:40:41.126Z,102291.22
2023-05-13T13:43:08.325Z,102289.47
2023-05-13T13:45:35.340Z,102279.47
2023-05-13T13:48:03.176Z,102275.97
2023-05-13T13:50:29.900Z,102278.59
2023-05-13T13:52:56.541Z,102283.03
2023-05-13T13:55:23.860Z,102283.94
2023-05-13T13:57:51.022Z,102287.56
2023-05-13T14:00:18.228Z,102272.19
2023-05-13T14:02:44.822Z,102273.00
2023-05-13T14:05:12.695Z,102269.41
2023-05-13T14:07:39.360Z,102278.41
2023-05-13T14:10:06.935Z,102271.22
2023-05-13T14:12:33.945Z,102267.69
2023-05-13T14:15:02.036Z,102265.81
2023-05-13T14:17:28.827Z,102272.09
2023-05-13T14:19:55.861Z,102272.25
2023-05-13T14:22:23.865Z,102259.56
2023-05-13T14:24:54.977Z,102265.88
2023-05-13T14:27:21.924Z,102259.59
2023-05-13T14:29:49.070Z,102254.16
2023-05-13T14:32:16.131Z,102260.47
2023-05-13T14:34:43.062Z,102249.72
2023-05-13T14:37:09.771Z,102253.25
2023-05-13T14:39:36.322Z,102253.19
2023-05-13T14:42:03.721Z,102254.06
2023-05-13T14:44:30.559Z,102252.25
2023-05-13T14:46:57.200Z,102245.97
2023-05-13T14:49:23.949Z,102249.59
2023-05-13T14:51:50.644Z,102243.97
2023-05-13T14:54:17.946Z,102250.34
2023-05-13T14:56:45.049Z,102239.53
2023-05-13T14:59:11.731Z,102245.94
2023-05-13T15:01:38.694Z,102244.94
2023-05-13T15:04:05.636Z,102244.03
2023-05-13T15:06:32.724Z,102245.81
2023-05-13T15:08:59.442Z,102241.25
2023-05-13T15:11:28.268Z,102247.56
2023-05-13T15:13:55.142Z,102247.44
2023-05-13T15:16:21.966Z,102242.16
2023-05-13T15:18:50.175Z,102236.63
2023-05-13T15:21:17.215Z,102241.81
2023-05-13T15:23:46.048Z,102242.69
2023-05-13T15:26:12.636Z,102245.38
2023-05-13T15:28:39.201Z,102248.91
2023-05-13T15:31:06.083Z,102250.72
2023-05-13T15:33:32.758Z,102237.88
2023-05-13T15:35:59.610Z,102244.25
2023-05-13T15:38:26.356Z,102247.16
2023-05-13T15:40:52.975Z,102239.91
2023-05-13T15:43:19.642Z,102240.81
2023-05-13T15:45:46.320Z,102250.78
2023-05-13T15:48:13.004Z,102238.13
2023-05-13T15:50:39.712Z,102241.75
2023-05-13T15:53:06.413Z,102238.13
2023-05-13T15:55:34.086Z,102233.66
2023-05-13T15:58:00.655Z,102242.66
2023-05-13T16:00:27.256Z,102248.06
2023-05-13T16:02:53.912Z,102236.34
2023-05-13T16:05:20.565Z,102231.84
2023-05-13T16:07:47.146Z,102241.78
2023-05-13T16:10:14.028Z,102230.94
2023-05-13T16:12:41.009Z,102230.00
2023-05-13T16:15:07.994Z,102218.28
2023-05-13T16:17:35.814Z,102220.06
2023-05-13T16:20:02.509Z,102220.94
2023-05-13T16:22:33.434Z,102216.47
2023-05-13T16:25:01.787Z,102212.91
2023-05-13T16:27:29.208Z,102216.44
2023-05-13T16:29:56.471Z,102225.50
2023-05-13T16:32:23.210Z,102228.09
2023-05-13T16:34:49.836Z,102229.00
2023-05-13T16:37:17.465Z,102228.13
2023-05-13T16:39:44.503Z,102219.06
2023-05-13T16:42:11.087Z,102218.13
2023-05-13T16:44:37.805Z,102216.25
2023-05-13T16:47:06.661Z,102219.06
2023-05-13T16:49:33.290Z,102214.50
2023-05-13T16:52:00.159Z,102210.91
2023-05-13T16:54:26.727Z,102218.09
2023-05-13T16:56:53.310Z,102213.59
2023-05-13T16:59:24.457Z,102220.69
2023-05-13T17:01:52.467Z,102221.63
2023-05-13T17:04:19.419Z,102222.47
2023-05-13T17:06:45.995Z,102227.88
2023-05-13T17:09:12.683Z,102224.22
2023-05-13T17:11:39.329Z,102234.13
2023-05-13T17:14:06.311Z,102237.69
2023-05-13T17:16:33.088Z,102225.94
2023-05-13T17:18:59.954Z,102227.88
2023-05-13T17:21:26.547Z,102226.16
2023-05-13T17:23:53.455Z,102227.88
2023-05-13T17:26:22.058Z,102223.41
2023-05-13T17:28:49.627Z,102218.88
2023-05-13T17:31:16.666Z,102215.31
2023-05-13T17:33:43.516Z,102219.78
2023-05-13T17:36:10.943Z,102219.78
2023-05-13T17:38:37.953Z,102218.00
2023-05-13T17:41:05.524Z,102215.25
2023-05-13T17:43:32.084Z,102210.81
2023-05-13T17:45:58.835Z,102218.91
2023-05-13T17:48:26.864Z,102219.78
2023-05-13T17:50:53.567Z,102214.44
2023-05-13T17:53:20.521Z,102206.31
2023-05-13T17:55:48.571Z,102214.44
2023-05-13T17:58:16.093Z,102208.09
2023-05-13T18:00:42.915Z,102210.81
2023-05-13T18:03:09.518Z,102205.47
2023-05-13T18:05:36.230Z,102201.91
2023-05-13T18:08:02.802Z,102203.63
2023-05-13T18:10:29.377Z,102203.69
2023-05-13T18:12:55.978Z,102211.81
2023-05-13T18:15:22.588Z,102212.78
2023-05-13T18:17:49.715Z,102209.16
2023-05-13T18:20:16.333Z,102214.50
2023-05-13T18:22:42.980Z,102217.25
2023-05-13T18:25:14.989Z,102219.09
2023-05-13T18:27:41.811Z,102218.19
2023-05-13T18:30:08.799Z,102221.75
2023-05-13T18:32:35.397Z,102216.34
2023-05-13T18:35:01.958Z,102212.72
2023-05-13T18:37:28.573Z,102216.44
2023-05-13T18:39:57.138Z,102211.03
2023-05-13T18:42:24.285Z,102207.38
2023-05-13T18:44:50.839Z,102211.03
2023-05-13T18:47:17.613Z,102215.56
2023-05-13T18:49:44.174Z,102214.66
2023-05-13T18:52:10.834Z,102216.44
2023-05-13T18:54:37.676Z,102221.00
2023-05-13T18:57:04.304Z,102217.44
2023-05-13T18:59:30.893Z,102225.66
2023-05-13T19:01:58.620Z,102227.38
2023-05-13T19:04:25.540Z,102229.22
2023-05-13T19:06:52.271Z,102224.69
2023-05-13T19:09:18.888Z,102235.63
2023-05-13T19:11:45.552Z,102233.88
2023-05-13T19:14:12.145Z,102249.22
2023-05-13T19:16:38.924Z,102251.16
2023-05-13T19:19:07.241Z,102249.44
2023-05-13T19:21:33.851Z,102254.72
2023-05-13T19:24:03.409Z,102248.41
2023-05-13T19:26:30.363Z,102253.84
2023-05-13T19:28:56.899Z,102262.03
2023-05-13T19:31:24.668Z,102257.50
2023-05-13T19:33:51.319Z,102261.25
2023-05-13T19:36:17.942Z,102253.97
2023-05-13T19:38:44.498Z,102253.06
2023-05-13T19:41:11.109Z,102261.28
2023-05-13T19:43:37.700Z,102254.97
2023-05-13T19:46:04.359Z,102251.47
2023-05-13T19:48:31.023Z,102256.88
2023-05-13T19:50:58.444Z,102251.47
2023-05-13T19:53:25.138Z,102251.38
2023-05-13T19:55:57.080Z,102252.41
2023-05-13T19:58:23.661Z,102249.59
2023-05-13T20:00:50.223Z,102250.59
2023-05-13T20:03:16.845Z,102253.41
2023-05-13T20:05:43.444Z,102259.66
2023-05-13T20:08:10.017Z,102256.97
2023-05-13T20:10:36.843Z,102260.63
2023-05-13T20:13:04.798Z,102260.81
2023-05-13T20:15:31.846Z,102261.63
2023-05-13T20:17:58.545Z,102260.81
2023-05-13T20:20:25.347Z,102261.72
2023-05-13T20:22:52.098Z,102263.53
2023-05-13T20:25:18.714Z,102258.00
2023-05-13T20:27:48.445Z,102255.41
2023-05-13T20:30:16.461Z,102261.63
2023-05-13T20:32:43.064Z,102250.88
2023-05-13T20:35:10.213Z,102247.41
2023-05-13T20:37:36.829Z,102252.81
2023-05-13T20:40:04.559Z,102251.97
2023-05-13T20:42:31.175Z,102251.03
2023-05-13T20:44:57.730Z,102244.78
2023-05-13T20:47:24.359Z,102251.94
2023-05-13T20:49:50.958Z,102253.88
2023-05-13T20:52:17.617Z,102247.53
2023-05-13T20:54:44.281Z,102242.13
2023-05-13T20:57:11.243Z,102247.66
2023-05-13T20:59:37.866Z,102248.47
2023-05-13T21:02:07.707Z,102248.44
2023-05-13T21:04:34.310Z,102247.59
2023-05-13T21:07:00.869Z,102241.38
2023-05-13T21:09:27.417Z,102241.34
2023-05-13T21:11:53.974Z,102237.78
2023-05-13T21:14:21.335Z,102239.66
2023-05-13T21:16:47.936Z,102238.66
2023-05-13T21:19:24.876Z,102239.50
2023-05-13T21:21:51.441Z,102233.47
2023-05-13T21:24:18.838Z,102234.19
2023-05-13T21:26:46.348Z,102232.56
2023-05-13T21:29:12.917Z,102230.78
2023-05-13T21:31:39.578Z,102225.38
2023-05-13T21:34:06.225Z,102228.16
2023-05-13T21:36:33.932Z,102231.72
2023-05-13T21:39:00.604Z,102219.16
2023-05-13T21:41:27.295Z,102219.13
2023-05-13T21:43:53.851Z,102218.25
2023-05-13T21:46:20.477Z,102223.66
2023-05-13T21:48:47.426Z,102211.13
2023-05-13T21:51:16.674Z,102222.84
2023-05-13T21:53:43.257Z,102216.56
2023-05-13T21:56:09.805Z,102217.41
2023-05-13T21:58:36.381Z,102217.53
2023-05-13T22:01:02.977Z,102208.59
2023-05-13T22:03:29.649Z,102213.97
2023-05-13T22:05:58.579Z,102211.16
2023-05-13T22:08:25.172Z,102205.88
2023-05-13T22:10:51.739Z,102206.81
2023-05-13T22:13:21.421Z,102205.06
2023-05-13T22:15:48.882Z,102208.72
2023-05-13T22:18:18.259Z,102201.47
2023-05-13T22:20:44.908Z,102206.06
2023-05-13T22:23:13.744Z,102206.06
2023-05-13T22:25:40.300Z,102198.88
2023-05-13T22:28:07.860Z,102197.03
2023-05-13T22:30:34.922Z,102189.84
2023-05-13T22:33:01.524Z,102194.34
2023-05-13T22:35:29.230Z,102193.41
2023-05-13T22:37:55.801Z,102198.88
2023-05-13T22:40:22.629Z,102188.09
2023-05-13T22:42:49.434Z,102184.69
2023-05-13T22:45:16.084Z,102182.66
2023-05-13T22:47:45.378Z,102179.19
2023-05-13T22:50:12.402Z,102177.47
2023-05-13T22:52:44.438Z,102175.78
2023-05-13T22:55:11.017Z,102177.47
2023-05-13T22:57:37.569Z,102177.41
2023-05-13T23:00:06.011Z,102181.06
2023-05-13T23:02:32.703Z,102173.97
2023-05-13T23:04:59.284Z,102173.88
2023-05-13T23:07:25.856Z,102173.91
2023-05-13T23:09:52.433Z,102170.38
2023-05-13T23:12:19.022Z,102170.31
2023-05-13T23:14:45.944Z,102172.16
2023-05-13T23:17:13.644Z,102165.81
2023-05-13T23:19:43.367Z,102161.47
2023-05-13T23:22:09.968Z,102157.81
2023-05-13T23:24:40.599Z,102159.66
2023-05-13T23:27:07.280Z,102159.56
2023-05-13T23:29:33.900Z,102152.47
2023-05-13T23:32:00.523Z,102155.16
2023-05-13T23:34:27.108Z,102155.22
2023-05-13T23:36:53.836Z,102150.72
2023-05-13T23:39:20.612Z,102148.13
2023-05-13T23:41:47.166Z,102150.88
2023-05-13T23:44:13.734Z,102147.28
2023-05-13T23:46:40.289Z,102153.47
2023-05-13T23:49:06.823Z,102147.22
2023-05-13T23:51:33.384Z,102142.63
2023-05-13T23:54:00.860Z,102146.41
2023-05-13T23:56:27.570Z,102143.59
2023-05-13T23:58:54.120Z,102136.38
